sensor_id;sensor_type;location;lat;lon;timestamp;P1;durP1;ratioP1;P2;durP2;ratioP2
6255;SDS011;3161;48.794;9.784;2022-12-29T00:00:04;24.27;;;13.20;;
6255;SDS011;3161;48.794;9.784;2022-12-29T00:02:33;26.40;;;12.27;;
6255;SDS011;3161;48.794;9.784;2022-12-29T00:05:01;19.30;;;11.77;;
6255;SDS011;3161;48.794;9.784;2022-12-29T00:07:29;20.63;;;10.07;;
6255;SDS011;3161;48.794;9.784;2022-12-29T00:09:56;22.00;;;11.50;;
6255;SDS011;3161;48.794;9.784;2022-12-29T00:12:24;29.33;;;11.73;;
6255;SDS011;3161;48.794;9.784;2022-12-29T00:14:53;20.00;;;10.40;;
6255;SDS011;3161;48.794;9.784;2022-12-29T00:17:34;22.13;;;10.57;;
6255;SDS011;3161;48.794;9.784;2022-12-29T00:20:02;20.30;;;11.03;;
6255;SDS011;3161;48.794;9.784;2022-12-29T00:22:47;17.47;;;10.43;;
6255;SDS011;3161;48.794;9.784;2022-12-29T00:25:33;23.20;;;11.50;;
6255;SDS011;3161;48.794;9.784;2022-12-29T00:28:20;16.80;;;9.90;;
6255;SDS011;3161;48.794;9.784;2022-12-29T00:31:07;18.43;;;9.67;;
6255;SDS011;3161;48.794;9.784;2022-12-29T00:33:49;16.47;;;8.97;;
6255;SDS011;3161;48.794;9.784;2022-12-29T00:36:36;13.23;;;8.67;;
6255;SDS011;3161;48.794;9.784;2022-12-29T00:39:07;19.90;;;10.33;;
6255;SDS011;3161;48.794;9.784;2022-12-29T00:42:06;15.50;;;9.47;;
6255;SDS011;3161;48.794;9.784;2022-12-29T00:44:53;15.57;;;9.00;;
6255;SDS011;3161;48.794;9.784;2022-12-29T00:47:21;18.70;;;9.93;;
6255;SDS011;3161;48.794;9.784;2022-12-29T00:49:48;21.03;;;9.10;;
6255;SDS011;3161;48.794;9.784;2022-12-29T00:52:15;16.43;;;9.10;;
6255;SDS011;3161;48.794;9.784;2022-12-29T00:54:43;16.87;;;8.77;;
6255;SDS011;3161;48.794;9.784;2022-12-29T00:57:11;12.47;;;8.90;;
6255;SDS011;3161;48.794;9.784;2022-12-29T00:59:39;12.43;;;8.33;;
6255;SDS011;3161;48.794;9.784;2022-12-29T01:02:08;20.27;;;8.03;;
6255;SDS011;3161;48.794;9.784;2022-12-29T01:04:36;12.90;;;7.80;;
6255;SDS011;3161;48.794;9.784;2022-12-29T01:07:04;16.57;;;9.27;;
6255;SDS011;3161;48.794;9.784;2022-12-29T01:09:32;17.03;;;8.60;;
6255;SDS011;3161;48.794;9.784;2022-12-29T01:12:17;13.87;;;8.63;;
6255;SDS011;3161;48.794;9.784;2022-12-29T01:14:46;19.37;;;9.43;;
6255;SDS011;3161;48.794;9.784;2022-12-29T01:17:14;15.63;;;8.40;;
6255;SDS011;3161;48.794;9.784;2022-12-29T01:19:41;16.93;;;8.83;;
6255;SDS011;3161;48.794;9.784;2022-12-29T01:22:09;20.83;;;9.93;;
6255;SDS011;3161;48.794;9.784;2022-12-29T01:24:36;15.13;;;9.03;;
6255;SDS011;3161;48.794;9.784;2022-12-29T01:27:04;15.50;;;8.93;;
6255;SDS011;3161;48.794;9.784;2022-12-29T01:29:31;14.50;;;7.53;;
6255;SDS011;3161;48.794;9.784;2022-12-29T01:31:59;16.53;;;7.80;;
6255;SDS011;3161;48.794;9.784;2022-12-29T01:34:26;16.50;;;7.63;;
6255;SDS011;3161;48.794;9.784;2022-12-29T01:36:54;15.07;;;6.27;;
6255;SDS011;3161;48.794;9.784;2022-12-29T01:39:22;10.77;;;6.40;;
6255;SDS011;3161;48.794;9.784;2022-12-29T01:41:49;10.50;;;6.07;;
6255;SDS011;3161;48.794;9.784;2022-12-29T01:47:07;7.83;;;5.60;;
6255;SDS011;3161;48.794;9.784;2022-12-29T01:49:35;9.77;;;5.73;;
6255;SDS011;3161;48.794;9.784;2022-12-29T01:52:04;10.20;;;6.37;;
6255;SDS011;3161;48.794;9.784;2022-12-29T01:54:38;10.53;;;5.67;;
6255;SDS011;3161;48.794;9.784;2022-12-29T01:57:14;16.83;;;7.30;;
6255;SDS011;3161;48.794;9.784;2022-12-29T01:59:48;9.93;;;6.23;;
6255;SDS011;3161;48.794;9.784;2022-12-29T02:02:18;13.20;;;7.50;;
6255;SDS011;3161;48.794;9.784;2022-12-29T02:05:15;9.13;;;5.53;;
6255;SDS011;3161;48.794;9.784;2022-12-29T02:07:39;10.17;;;6.77;;
6255;SDS011;3161;48.794;9.784;2022-12-29T02:10:08;9.83;;;6.07;;
6255;SDS011;3161;48.794;9.784;2022-12-29T02:12:36;9.30;;;5.50;;
6255;SDS011;3161;48.794;9.784;2022-12-29T02:15:04;17.00;;;8.93;;
6255;SDS011;3161;48.794;9.784;2022-12-29T02:31:58;9.67;;;5.33;;
6255;SDS011;3161;48.794;9.784;2022-12-29T02:36:46;10.73;;;6.40;;
6255;SDS011;3161;48.794;9.784;2022-12-29T02:47:09;9.60;;;6.17;;
6255;SDS011;3161;48.794;9.784;2022-12-29T02:49:42;9.70;;;5.73;;
6255;SDS011;3161;48.794;9.784;2022-12-29T02:52:15;9.43;;;5.87;;
6255;SDS011;3161;48.794;9.784;2022-12-29T02:54:40;7.30;;;5.40;;
6255;SDS011;3161;48.794;9.784;2022-12-29T02:57:13;9.53;;;5.40;;
6255;SDS011;3161;48.794;9.784;2022-12-29T02:59:42;7.03;;;4.93;;
6255;SDS011;3161;48.794;9.784;2022-12-29T03:10:59;9.07;;;4.20;;
6255;SDS011;3161;48.794;9.784;2022-12-29T03:13:44;10.33;;;5.20;;
6255;SDS011;3161;48.794;9.784;2022-12-29T03:16:41;6.87;;;4.37;;
6255;SDS011;3161;48.794;9.784;2022-12-29T03:19:19;6.13;;;4.00;;
6255;SDS011;3161;48.794;9.784;2022-12-29T03:21:55;5.70;;;3.83;;
6255;SDS011;3161;48.794;9.784;2022-12-29T03:24:43;5.93;;;4.13;;
6255;SDS011;3161;48.794;9.784;2022-12-29T03:27:14;5.10;;;3.30;;
6255;SDS011;3161;48.794;9.784;2022-12-29T03:29:47;5.17;;;3.80;;
6255;SDS011;3161;48.794;9.784;2022-12-29T03:32:21;5.47;;;3.60;;
6255;SDS011;3161;48.794;9.784;2022-12-29T03:34:50;6.63;;;4.53;;
6255;SDS011;3161;48.794;9.784;2022-12-29T03:37:23;3.87;;;3.40;;
6255;SDS011;3161;48.794;9.784;2022-12-29T03:39:53;5.80;;;4.03;;
6255;SDS011;3161;48.794;9.784;2022-12-29T03:42:21;7.57;;;3.73;;
6255;SDS011;3161;48.794;9.784;2022-12-29T03:44:53;7.73;;;5.00;;
6255;SDS011;3161;48.794;9.784;2022-12-29T03:47:22;6.60;;;3.87;;
6255;SDS011;3161;48.794;9.784;2022-12-29T03:49:50;4.67;;;3.13;;
6255;SDS011;3161;48.794;9.784;2022-12-29T03:52:18;3.47;;;2.90;;
6255;SDS011;3161;48.794;9.784;2022-12-29T03:54:45;6.93;;;2.90;;
6255;SDS011;3161;48.794;9.784;2022-12-29T03:57:13;4.03;;;2.73;;
6255;SDS011;3161;48.794;9.784;2022-12-29T03:59:40;2.63;;;2.40;;
6255;SDS011;3161;48.794;9.784;2022-12-29T04:02:08;4.60;;;2.40;;
6255;SDS011;3161;48.794;9.784;2022-12-29T04:04:35;3.13;;;2.60;;
6255;SDS011;3161;48.794;9.784;2022-12-29T04:07:03;6.17;;;3.13;;
6255;SDS011;3161;48.794;9.784;2022-12-29T04:09:30;6.03;;;2.80;;
6255;SDS011;3161;48.794;9.784;2022-12-29T04:11:58;7.30;;;2.33;;
6255;SDS011;3161;48.794;9.784;2022-12-29T04:14:25;3.93;;;2.43;;
6255;SDS011;3161;48.794;9.784;2022-12-29T04:16:53;4.60;;;2.90;;
6255;SDS011;3161;48.794;9.784;2022-12-29T04:19:20;3.90;;;2.70;;
6255;SDS011;3161;48.794;9.784;2022-12-29T04:21:48;4.77;;;2.90;;
6255;SDS011;3161;48.794;9.784;2022-12-29T04:24:15;3.83;;;2.90;;
6255;SDS011;3161;48.794;9.784;2022-12-29T04:26:43;8.97;;;3.13;;
6255;SDS011;3161;48.794;9.784;2022-12-29T04:29:11;5.20;;;3.70;;
6255;SDS011;3161;48.794;9.784;2022-12-29T04:31:38;4.87;;;2.80;;
6255;SDS011;3161;48.794;9.784;2022-12-29T04:34:06;3.87;;;2.73;;
6255;SDS011;3161;48.794;9.784;2022-12-29T04:36:33;3.43;;;3.00;;
6255;SDS011;3161;48.794;9.784;2022-12-29T04:39:01;4.80;;;2.90;;
6255;SDS011;3161;48.794;9.784;2022-12-29T04:41:30;3.97;;;3.13;;
6255;SDS011;3161;48.794;9.784;2022-12-29T04:43:58;4.23;;;2.33;;
6255;SDS011;3161;48.794;9.784;2022-12-29T04:46:26;6.33;;;3.00;;
6255;SDS011;3161;48.794;9.784;2022-12-29T04:48:53;2.77;;;2.33;;
6255;SDS011;3161;48.794;9.784;2022-12-29T04:51:21;6.10;;;2.63;;
6255;SDS011;3161;48.794;9.784;2022-12-29T04:53:49;4.77;;;2.10;;
6255;SDS011;3161;48.794;9.784;2022-12-29T04:56:16;5.07;;;3.23;;
6255;SDS011;3161;48.794;9.784;2022-12-29T04:58:44;3.47;;;2.67;;
6255;SDS011;3161;48.794;9.784;2022-12-29T05:01:11;3.97;;;2.60;;
6255;SDS011;3161;48.794;9.784;2022-12-29T05:03:39;4.00;;;2.80;;
6255;SDS011;3161;48.794;9.784;2022-12-29T05:06:06;3.77;;;2.80;;
6255;SDS011;3161;48.794;9.784;2022-12-29T05:08:34;8.77;;;3.20;;
6255;SDS011;3161;48.794;9.784;2022-12-29T05:11:01;5.37;;;2.83;;
6255;SDS011;3161;48.794;9.784;2022-12-29T05:13:29;7.10;;;3.00;;
6255;SDS011;3161;48.794;9.784;2022-12-29T05:15:56;5.10;;;2.80;;
6255;SDS011;3161;48.794;9.784;2022-12-29T05:18:24;3.40;;;2.57;;
6255;SDS011;3161;48.794;9.784;2022-12-29T05:20:51;4.00;;;2.23;;
6255;SDS011;3161;48.794;9.784;2022-12-29T05:23:19;2.63;;;2.30;;
6255;SDS011;3161;48.794;9.784;2022-12-29T05:25:47;4.60;;;2.90;;
6255;SDS011;3161;48.794;9.784;2022-12-29T05:28:14;5.23;;;2.50;;
6255;SDS011;3161;48.794;9.784;2022-12-29T05:30:42;2.90;;;2.20;;
6255;SDS011;3161;48.794;9.784;2022-12-29T05:33:09;3.73;;;2.57;;
6255;SDS011;3161;48.794;9.784;2022-12-29T05:35:37;4.37;;;2.27;;
6255;SDS011;3161;48.794;9.784;2022-12-29T05:38:05;2.97;;;2.27;;
6255;SDS011;3161;48.794;9.784;2022-12-29T05:40:32;2.50;;;2.30;;
6255;SDS011;3161;48.794;9.784;2022-12-29T05:43:00;2.37;;;2.17;;
6255;SDS011;3161;48.794;9.784;2022-12-29T05:45:27;5.37;;;2.40;;
6255;SDS011;3161;48.794;9.784;2022-12-29T05:47:55;2.33;;;2.13;;
6255;SDS011;3161;48.794;9.784;2022-12-29T05:50:22;1.93;;;1.83;;
6255;SDS011;3161;48.794;9.784;2022-12-29T05:52:50;4.97;;;2.27;;
6255;SDS011;3161;48.794;9.784;2022-12-29T05:55:17;3.33;;;1.63;;
6255;SDS011;3161;48.794;9.784;2022-12-29T05:57:45;2.20;;;1.63;;
6255;SDS011;3161;48.794;9.784;2022-12-29T06:00:13;3.43;;;1.50;;
6255;SDS011;3161;48.794;9.784;2022-12-29T06:02:41;2.23;;;1.50;;
6255;SDS011;3161;48.794;9.784;2022-12-29T06:05:08;5.07;;;2.27;;
6255;SDS011;3161;48.794;9.784;2022-12-29T06:07:36;7.60;;;3.23;;
6255;SDS011;3161;48.794;9.784;2022-12-29T06:10:04;9.43;;;4.07;;
6255;SDS011;3161;48.794;9.784;2022-12-29T06:12:32;4.27;;;2.23;;
6255;SDS011;3161;48.794;9.784;2022-12-29T06:15:00;6.70;;;2.70;;
6255;SDS011;3161;48.794;9.784;2022-12-29T06:17:27;7.80;;;2.03;;
6255;SDS011;3161;48.794;9.784;2022-12-29T06:19:55;5.00;;;2.00;;
6255;SDS011;3161;48.794;9.784;2022-12-29T06:22:22;5.40;;;2.47;;
6255;SDS011;3161;48.794;9.784;2022-12-29T06:24:50;6.73;;;4.60;;
6255;SDS011;3161;48.794;9.784;2022-12-29T06:27:17;8.57;;;4.40;;
6255;SDS011;3161;48.794;9.784;2022-12-29T06:29:45;6.67;;;3.87;;
6255;SDS011;3161;48.794;9.784;2022-12-29T06:32:13;6.23;;;2.90;;
6255;SDS011;3161;48.794;9.784;2022-12-29T06:34:40;5.07;;;3.30;;
6255;SDS011;3161;48.794;9.784;2022-12-29T06:37:08;6.43;;;3.33;;
6255;SDS011;3161;48.794;9.784;2022-12-29T06:39:35;10.58;;;3.67;;
6255;SDS011;3161;48.794;9.784;2022-12-29T06:42:03;6.27;;;4.60;;
6255;SDS011;3161;48.794;9.784;2022-12-29T06:44:30;8.23;;;3.80;;
6255;SDS011;3161;48.794;9.784;2022-12-29T06:46:58;9.57;;;3.77;;
6255;SDS011;3161;48.794;9.784;2022-12-29T06:49:25;4.17;;;3.10;;
6255;SDS011;3161;48.794;9.784;2022-12-29T06:51:53;6.80;;;3.13;;
6255;SDS011;3161;48.794;9.784;2022-12-29T06:54:20;2.90;;;2.70;;
6255;SDS011;3161;48.794;9.784;2022-12-29T06:56:48;3.67;;;3.17;;
6255;SDS011;3161;48.794;9.784;2022-12-29T06:59:15;4.47;;;2.87;;
6255;SDS011;3161;48.794;9.784;2022-12-29T07:01:43;3.50;;;2.00;;
6255;SDS011;3161;48.794;9.784;2022-12-29T07:04:10;3.43;;;2.33;;
6255;SDS011;3161;48.794;9.784;2022-12-29T07:06:38;2.77;;;1.97;;
6255;SDS011;3161;48.794;9.784;2022-12-29T07:09:07;7.33;;;3.00;;
6255;SDS011;3161;48.794;9.784;2022-12-29T07:11:35;30.37;;;14.97;;
6255;SDS011;3161;48.794;9.784;2022-12-29T07:14:03;22.63;;;10.23;;
6255;SDS011;3161;48.794;9.784;2022-12-29T07:16:31;18.33;;;10.33;;
6255;SDS011;3161;48.794;9.784;2022-12-29T07:18:59;16.53;;;9.30;;
6255;SDS011;3161;48.794;9.784;2022-12-29T07:21:27;21.50;;;10.30;;
6255;SDS011;3161;48.794;9.784;2022-12-29T07:23:55;18.07;;;9.60;;
6255;SDS011;3161;48.794;9.784;2022-12-29T07:26:22;14.67;;;6.03;;
6255;SDS011;3161;48.794;9.784;2022-12-29T07:28:50;9.30;;;5.50;;
6255;SDS011;3161;48.794;9.784;2022-12-29T07:31:18;14.83;;;7.83;;
6255;SDS011;3161;48.794;9.784;2022-12-29T07:33:48;15.33;;;7.87;;
6255;SDS011;3161;48.794;9.784;2022-12-29T07:36:16;15.00;;;8.70;;
6255;SDS011;3161;48.794;9.784;2022-12-29T07:38:43;20.23;;;10.03;;
6255;SDS011;3161;48.794;9.784;2022-12-29T07:41:11;20.37;;;9.43;;
6255;SDS011;3161;48.794;9.784;2022-12-29T07:43:39;16.43;;;9.50;;
6255;SDS011;3161;48.794;9.784;2022-12-29T07:46:06;18.50;;;9.93;;
6255;SDS011;3161;48.794;9.784;2022-12-29T07:48:35;14.03;;;8.70;;
6255;SDS011;3161;48.794;9.784;2022-12-29T07:51:03;15.63;;;8.37;;
6255;SDS011;3161;48.794;9.784;2022-12-29T07:53:32;18.77;;;8.30;;
6255;SDS011;3161;48.794;9.784;2022-12-29T07:55:59;13.90;;;6.70;;
6255;SDS011;3161;48.794;9.784;2022-12-29T07:58:27;17.33;;;7.03;;
6255;SDS011;3161;48.794;9.784;2022-12-29T08:00:55;13.00;;;6.53;;
6255;SDS011;3161;48.794;9.784;2022-12-29T08:03:23;12.27;;;5.93;;
6255;SDS011;3161;48.794;9.784;2022-12-29T08:05:51;22.30;;;10.03;;
6255;SDS011;3161;48.794;9.784;2022-12-29T08:08:20;8.27;;;5.13;;
6255;SDS011;3161;48.794;9.784;2022-12-29T08:10:47;8.03;;;4.83;;
6255;SDS011;3161;48.794;9.784;2022-12-29T08:13:15;6.27;;;4.63;;
6255;SDS011;3161;48.794;9.784;2022-12-29T08:15:42;9.17;;;5.10;;
6255;SDS011;3161;48.794;9.784;2022-12-29T08:18:10;30.43;;;11.33;;
6255;SDS011;3161;48.794;9.784;2022-12-29T08:20:37;27.13;;;12.17;;
6255;SDS011;3161;48.794;9.784;2022-12-29T08:23:05;24.17;;;11.80;;
6255;SDS011;3161;48.794;9.784;2022-12-29T08:25:32;28.30;;;11.67;;
6255;SDS011;3161;48.794;9.784;2022-12-29T08:28:00;21.27;;;10.50;;
6255;SDS011;3161;48.794;9.784;2022-12-29T08:30:27;22.90;;;11.90;;
6255;SDS011;3161;48.794;9.784;2022-12-29T08:32:55;26.00;;;11.23;;
6255;SDS011;3161;48.794;9.784;2022-12-29T08:35:22;23.87;;;11.23;;
6255;SDS011;3161;48.794;9.784;2022-12-29T08:37:50;21.23;;;10.93;;
6255;SDS011;3161;48.794;9.784;2022-12-29T08:40:17;20.03;;;10.50;;
6255;SDS011;3161;48.794;9.784;2022-12-29T08:42:45;22.30;;;13.50;;
6255;SDS011;3161;48.794;9.784;2022-12-29T08:45:13;19.07;;;11.13;;
6255;SDS011;3161;48.794;9.784;2022-12-29T08:47:40;24.17;;;12.70;;
6255;SDS011;3161;48.794;9.784;2022-12-29T08:50:08;23.37;;;12.17;;
6255;SDS011;3161;48.794;9.784;2022-12-29T08:52:36;23.57;;;11.93;;
6255;SDS011;3161;48.794;9.784;2022-12-29T08:55:03;32.57;;;17.13;;
6255;SDS011;3161;48.794;9.784;2022-12-29T08:57:31;31.83;;;16.50;;
6255;SDS011;3161;48.794;9.784;2022-12-29T08:59:59;30.03;;;14.83;;
6255;SDS011;3161;48.794;9.784;2022-12-29T09:02:26;23.20;;;12.37;;
6255;SDS011;3161;48.794;9.784;2022-12-29T09:04:54;19.23;;;11.13;;
6255;SDS011;3161;48.794;9.784;2022-12-29T09:07:23;18.00;;;9.37;;
6255;SDS011;3161;48.794;9.784;2022-12-29T09:09:51;14.70;;;6.87;;
6255;SDS011;3161;48.794;9.784;2022-12-29T09:12:18;7.70;;;4.90;;
6255;SDS011;3161;48.794;9.784;2022-12-29T09:14:46;12.40;;;4.37;;
6255;SDS011;3161;48.794;9.784;2022-12-29T09:17:16;6.50;;;4.33;;
6255;SDS011;3161;48.794;9.784;2022-12-29T09:20:02;6.93;;;3.47;;
6255;SDS011;3161;48.794;9.784;2022-12-29T09:22:30;4.57;;;3.70;;
6255;SDS011;3161;48.794;9.784;2022-12-29T09:24:59;5.57;;;3.53;;
6255;SDS011;3161;48.794;9.784;2022-12-29T09:27:35;6.13;;;1.83;;
6255;SDS011;3161;48.794;9.784;2022-12-29T09:30:03;6.40;;;2.40;;
6255;SDS011;3161;48.794;9.784;2022-12-29T09:32:33;3.57;;;2.00;;
6255;SDS011;3161;48.794;9.784;2022-12-29T09:35:01;2.63;;;1.77;;
6255;SDS011;3161;48.794;9.784;2022-12-29T09:37:29;3.60;;;1.50;;
6255;SDS011;3161;48.794;9.784;2022-12-29T09:39:57;3.30;;;1.00;;
6255;SDS011;3161;48.794;9.784;2022-12-29T09:45:10;4.97;;;1.50;;
6255;SDS011;3161;48.794;9.784;2022-12-29T09:47:38;6.37;;;1.80;;
6255;SDS011;3161;48.794;9.784;2022-12-29T09:50:11;1.40;;;0.80;;
6255;SDS011;3161;48.794;9.784;2022-12-29T09:52:47;2.10;;;1.50;;
6255;SDS011;3161;48.794;9.784;2022-12-29T09:55:16;1.70;;;1.47;;
6255;SDS011;3161;48.794;9.784;2022-12-29T09:57:53;6.83;;;1.90;;
6255;SDS011;3161;48.794;9.784;2022-12-29T10:00:24;1.17;;;0.83;;
6255;SDS011;3161;48.794;9.784;2022-12-29T10:02:58;1.80;;;1.10;;
6255;SDS011;3161;48.794;9.784;2022-12-29T10:10:53;1.93;;;0.80;;
6255;SDS011;3161;48.794;9.784;2022-12-29T10:16:15;3.80;;;0.90;;
6255;SDS011;3161;48.794;9.784;2022-12-29T10:18:48;1.33;;;1.00;;
6255;SDS011;3161;48.794;9.784;2022-12-29T10:21:36;2.83;;;0.90;;
6255;SDS011;3161;48.794;9.784;2022-12-29T10:24:19;4.13;;;1.10;;
6255;SDS011;3161;48.794;9.784;2022-12-29T10:26:49;3.60;;;0.80;;
6255;SDS011;3161;48.794;9.784;2022-12-29T10:29:26;2.73;;;0.97;;
6255;SDS011;3161;48.794;9.784;2022-12-29T10:32:00;2.73;;;1.07;;
6255;SDS011;3161;48.794;9.784;2022-12-29T10:34:42;4.37;;;1.23;;
6255;SDS011;3161;48.794;9.784;2022-12-29T10:37:17;1.90;;;1.00;;
6255;SDS011;3161;48.794;9.784;2022-12-29T10:40:11;2.93;;;0.80;;
6255;SDS011;3161;48.794;9.784;2022-12-29T10:42:43;3.20;;;1.07;;
6255;SDS011;3161;48.794;9.784;2022-12-29T10:45:13;1.77;;;1.13;;
6255;SDS011;3161;48.794;9.784;2022-12-29T10:47:47;0.80;;;0.80;;
6255;SDS011;3161;48.794;9.784;2022-12-29T10:50:22;3.17;;;1.00;;
6255;SDS011;3161;48.794;9.784;2022-12-29T10:52:52;16.60;;;3.67;;
6255;SDS011;3161;48.794;9.784;2022-12-29T10:55:22;1.77;;;1.00;;
6255;SDS011;3161;48.794;9.784;2022-12-29T10:57:53;1.50;;;0.77;;
6255;SDS011;3161;48.794;9.784;2022-12-29T11:00:23;1.77;;;1.00;;
6255;SDS011;3161;48.794;9.784;2022-12-29T11:06:00;4.03;;;1.83;;
6255;SDS011;3161;48.794;9.784;2022-12-29T11:08:31;3.77;;;1.43;;
6255;SDS011;3161;48.794;9.784;2022-12-29T11:11:00;3.73;;;1.20;;
6255;SDS011;3161;48.794;9.784;2022-12-29T11:13:30;1.57;;;1.40;;
6255;SDS011;3161;48.794;9.784;2022-12-29T11:15:59;7.30;;;1.97;;
6255;SDS011;3161;48.794;9.784;2022-12-29T11:18:36;4.23;;;2.10;;
6255;SDS011;3161;48.794;9.784;2022-12-29T11:21:06;2.00;;;1.50;;
6255;SDS011;3161;48.794;9.784;2022-12-29T11:23:39;2.27;;;1.17;;
6255;SDS011;3161;48.794;9.784;2022-12-29T11:28:39;2.00;;;1.10;;
6255;SDS011;3161;48.794;9.784;2022-12-29T11:31:08;3.30;;;0.80;;
6255;SDS011;3161;48.794;9.784;2022-12-29T11:33:37;2.30;;;1.00;;
6255;SDS011;3161;48.794;9.784;2022-12-29T11:38:51;2.20;;;1.17;;
6255;SDS011;3161;48.794;9.784;2022-12-29T11:41:23;3.90;;;1.13;;
6255;SDS011;3161;48.794;9.784;2022-12-29T11:44:00;1.67;;;1.03;;
6255;SDS011;3161;48.794;9.784;2022-12-29T11:46:32;3.33;;;1.20;;
6255;SDS011;3161;48.794;9.784;2022-12-29T11:49:02;3.63;;;1.10;;
6255;SDS011;3161;48.794;9.784;2022-12-29T11:51:33;1.60;;;0.80;;
6255;SDS011;3161;48.794;9.784;2022-12-29T11:54:02;1.97;;;1.10;;
6255;SDS011;3161;48.794;9.784;2022-12-29T11:56:37;4.77;;;1.10;;
6255;SDS011;3161;48.794;9.784;2022-12-29T12:01:49;1.30;;;0.80;;
6255;SDS011;3161;48.794;9.784;2022-12-29T12:04:17;2.43;;;1.00;;
6255;SDS011;3161;48.794;9.784;2022-12-29T12:07:00;5.90;;;0.90;;
6255;SDS011;3161;48.794;9.784;2022-12-29T12:09:28;0.80;;;0.80;;
6255;SDS011;3161;48.794;9.784;2022-12-29T12:11:57;3.00;;;1.10;;
6255;SDS011;3161;48.794;9.784;2022-12-29T12:17:05;1.23;;;0.70;;
6255;SDS011;3161;48.794;9.784;2022-12-29T12:22:08;1.27;;;0.87;;
6255;SDS011;3161;48.794;9.784;2022-12-29T12:24:55;1.97;;;1.00;;
6255;SDS011;3161;48.794;9.784;2022-12-29T12:27:26;2.50;;;1.00;;
6255;SDS011;3161;48.794;9.784;2022-12-29T12:29:59;2.80;;;1.23;;
6255;SDS011;3161;48.794;9.784;2022-12-29T12:32:52;1.10;;;1.00;;
6255;SDS011;3161;48.794;9.784;2022-12-29T12:38:15;5.10;;;2.20;;
6255;SDS011;3161;48.794;9.784;2022-12-29T12:40:53;4.00;;;1.50;;
6255;SDS011;3161;48.794;9.784;2022-12-29T12:46:19;4.97;;;2.00;;
6255;SDS011;3161;48.794;9.784;2022-12-29T12:49:43;3.80;;;1.73;;
6255;SDS011;3161;48.794;9.784;2022-12-29T12:51:45;1.70;;;1.13;;
6255;SDS011;3161;48.794;9.784;2022-12-29T12:57:12;2.73;;;1.17;;
6255;SDS011;3161;48.794;9.784;2022-12-29T12:59:56;2.20;;;1.40;;
6255;SDS011;3161;48.794;9.784;2022-12-29T13:02:59;1.67;;;1.40;;
6255;SDS011;3161;48.794;9.784;2022-12-29T13:10:57;2.40;;;1.20;;
6255;SDS011;3161;48.794;9.784;2022-12-29T13:13:45;3.47;;;1.77;;
6255;SDS011;3161;48.794;9.784;2022-12-29T13:16:39;3.07;;;1.30;;
6255;SDS011;3161;48.794;9.784;2022-12-29T13:19:13;3.20;;;1.40;;
6255;SDS011;3161;48.794;9.784;2022-12-29T13:27:09;10.27;;;5.80;;
6255;SDS011;3161;48.794;9.784;2022-12-29T13:29:38;14.63;;;6.63;;
6255;SDS011;3161;48.794;9.784;2022-12-29T13:38:09;4.27;;;2.43;;
6255;SDS011;3161;48.794;9.784;2022-12-29T13:40:43;3.00;;;1.43;;
6255;SDS011;3161;48.794;9.784;2022-12-29T13:43:15;1.50;;;0.93;;
6255;SDS011;3161;48.794;9.784;2022-12-29T13:45:44;1.17;;;0.80;;
6255;SDS011;3161;48.794;9.784;2022-12-29T13:48:15;1.77;;;0.93;;
6255;SDS011;3161;48.794;9.784;2022-12-29T13:50:52;3.03;;;1.03;;
6255;SDS011;3161;48.794;9.784;2022-12-29T13:53:41;1.00;;;0.90;;
6255;SDS011;3161;48.794;9.784;2022-12-29T13:56:15;2.00;;;0.80;;
6255;SDS011;3161;48.794;9.784;2022-12-29T13:58:49;7.37;;;1.43;;
6255;SDS011;3161;48.794;9.784;2022-12-29T14:01:30;2.33;;;1.77;;
6255;SDS011;3161;48.794;9.784;2022-12-29T14:04:03;4.93;;;2.23;;
6255;SDS011;3161;48.794;9.784;2022-12-29T14:06:39;6.37;;;2.30;;
6255;SDS011;3161;48.794;9.784;2022-12-29T14:12:34;9.67;;;5.80;;
6255;SDS011;3161;48.794;9.784;2022-12-29T14:15:06;8.77;;;4.13;;
6255;SDS011;3161;48.794;9.784;2022-12-29T14:17:39;24.60;;;12.93;;
6255;SDS011;3161;48.794;9.784;2022-12-29T14:20:20;2.87;;;2.03;;
6255;SDS011;3161;48.794;9.784;2022-12-29T14:22:57;7.00;;;2.20;;
6255;SDS011;3161;48.794;9.784;2022-12-29T14:25:55;2.80;;;1.37;;
6255;SDS011;3161;48.794;9.784;2022-12-29T14:28:25;4.33;;;1.97;;
6255;SDS011;3161;48.794;9.784;2022-12-29T14:30:55;6.90;;;1.60;;
6255;SDS011;3161;48.794;9.784;2022-12-29T14:33:26;7.37;;;1.87;;
6255;SDS011;3161;48.794;9.784;2022-12-29T14:38:46;1.20;;;1.10;;
6255;SDS011;3161;48.794;9.784;2022-12-29T14:41:16;3.50;;;1.00;;
6255;SDS011;3161;48.794;9.784;2022-12-29T14:44:02;3.00;;;0.80;;
6255;SDS011;3161;48.794;9.784;2022-12-29T14:49:26;1.03;;;1.03;;
6255;SDS011;3161;48.794;9.784;2022-12-29T14:52:04;0.90;;;0.60;;
6255;SDS011;3161;48.794;9.784;2022-12-29T14:54:43;1.90;;;1.10;;
6255;SDS011;3161;48.794;9.784;2022-12-29T14:57:31;0.93;;;0.87;;
6255;SDS011;3161;48.794;9.784;2022-12-29T15:00:21;0.90;;;0.90;;
6255;SDS011;3161;48.794;9.784;2022-12-29T15:02:52;1.57;;;1.20;;
6255;SDS011;3161;48.794;9.784;2022-12-29T15:05:30;1.17;;;1.07;;
6255;SDS011;3161;48.794;9.784;2022-12-29T15:08:05;2.77;;;0.73;;
6255;SDS011;3161;48.794;9.784;2022-12-29T15:13:23;4.60;;;1.53;;
6255;SDS011;3161;48.794;9.784;2022-12-29T15:15:53;2.50;;;1.17;;
6255;SDS011;3161;48.794;9.784;2022-12-29T15:21:00;6.60;;;1.57;;
6255;SDS011;3161;48.794;9.784;2022-12-29T15:23:34;5.93;;;2.30;;
6255;SDS011;3161;48.794;9.784;2022-12-29T15:26:05;6.13;;;3.00;;
6255;SDS011;3161;48.794;9.784;2022-12-29T15:28:44;2.53;;;1.37;;
6255;SDS011;3161;48.794;9.784;2022-12-29T15:31:18;3.37;;;1.40;;
6255;SDS011;3161;48.794;9.784;2022-12-29T15:33:45;3.23;;;1.30;;
6255;SDS011;3161;48.794;9.784;2022-12-29T15:36:25;4.07;;;3.37;;
6255;SDS011;3161;48.794;9.784;2022-12-29T15:38:54;3.70;;;1.90;;
6255;SDS011;3161;48.794;9.784;2022-12-29T15:41:41;4.60;;;2.23;;
6255;SDS011;3161;48.794;9.784;2022-12-29T15:44:32;9.93;;;4.10;;
6255;SDS011;3161;48.794;9.784;2022-12-29T15:47:15;4.40;;;3.03;;
6255;SDS011;3161;48.794;9.784;2022-12-29T15:49:41;2.27;;;1.80;;
6255;SDS011;3161;48.794;9.784;2022-12-29T15:52:10;4.53;;;1.50;;
6255;SDS011;3161;48.794;9.784;2022-12-29T15:54:39;1.40;;;1.30;;
6255;SDS011;3161;48.794;9.784;2022-12-29T15:59:51;5.17;;;2.43;;
6255;SDS011;3161;48.794;9.784;2022-12-29T16:02:23;17.23;;;10.47;;
6255;SDS011;3161;48.794;9.784;2022-12-29T16:04:51;42.73;;;18.83;;
6255;SDS011;3161;48.794;9.784;2022-12-29T16:07:24;16.03;;;7.87;;
6255;SDS011;3161;48.794;9.784;2022-12-29T16:09:56;6.73;;;3.47;;
6255;SDS011;3161;48.794;9.784;2022-12-29T16:12:33;6.87;;;2.67;;
6255;SDS011;3161;48.794;9.784;2022-12-29T16:15:04;5.67;;;3.97;;
6255;SDS011;3161;48.794;9.784;2022-12-29T16:17:41;9.23;;;3.90;;
6255;SDS011;3161;48.794;9.784;2022-12-29T16:20:21;8.80;;;4.67;;
6255;SDS011;3161;48.794;9.784;2022-12-29T16:22:55;8.70;;;5.57;;
6255;SDS011;3161;48.794;9.784;2022-12-29T16:25:25;12.63;;;5.27;;
6255;SDS011;3161;48.794;9.784;2022-12-29T16:28:00;7.37;;;5.10;;
6255;SDS011;3161;48.794;9.784;2022-12-29T16:30:31;8.83;;;5.93;;
6255;SDS011;3161;48.794;9.784;2022-12-29T16:33:01;12.07;;;7.23;;
6255;SDS011;3161;48.794;9.784;2022-12-29T16:35:38;4.10;;;3.03;;
6255;SDS011;3161;48.794;9.784;2022-12-29T16:40:59;2.30;;;1.30;;
6255;SDS011;3161;48.794;9.784;2022-12-29T16:48:31;6.13;;;4.00;;
6255;SDS011;3161;48.794;9.784;2022-12-29T16:51:11;1.77;;;1.20;;
6255;SDS011;3161;48.794;9.784;2022-12-29T16:53:40;5.97;;;3.10;;
6255;SDS011;3161;48.794;9.784;2022-12-29T16:56:20;6.73;;;4.37;;
6255;SDS011;3161;48.794;9.784;2022-12-29T16:58:54;12.17;;;9.53;;
6255;SDS011;3161;48.794;9.784;2022-12-29T17:01:30;2.33;;;1.70;;
6255;SDS011;3161;48.794;9.784;2022-12-29T17:04:00;2.40;;;2.20;;
6255;SDS011;3161;48.794;9.784;2022-12-29T17:06:30;0.70;;;0.70;;
6255;SDS011;3161;48.794;9.784;2022-12-29T17:08:58;2.87;;;2.13;;
6255;SDS011;3161;48.794;9.784;2022-12-29T17:14:20;0.80;;;0.80;;
6255;SDS011;3161;48.794;9.784;2022-12-29T17:16:48;3.73;;;2.47;;
6255;SDS011;3161;48.794;9.784;2022-12-29T17:19:17;4.60;;;3.30;;
6255;SDS011;3161;48.794;9.784;2022-12-29T17:21:46;9.40;;;4.77;;
6255;SDS011;3161;48.794;9.784;2022-12-29T17:24:17;30.33;;;11.57;;
6255;SDS011;3161;48.794;9.784;2022-12-29T17:26:47;31.30;;;11.57;;
6255;SDS011;3161;48.794;9.784;2022-12-29T17:29:26;14.27;;;6.13;;
6255;SDS011;3161;48.794;9.784;2022-12-29T17:32:00;11.50;;;5.97;;